Time;durP1;ratioP1;P1;durP2;ratioP2;P2;SDS_P1;SDS_P2;PMS_P1;PMS_P2;Temp;Humidity;BMP_temperature;BMP_pressure;BME280_temperature;BME280_humidity;BME280_pressure;Samples;Min_cycle;Max_cycle;Signal;HPM_P1;HPM_P2
2022/09/29 00:01:44;;;;;;;3.95;2.80;;;7.80;99.90;;;;;;5071563;28;20284;-68
2022/09/29 00:04:11;;;;;;;3.05;2.35;;;7.90;99.90;;;;;;5071116;28;20234;-68
2022/09/29 00:06:38;;;;;;;2.80;2.55;;;7.90;99.90;;;;;;5072111;28;20214;-68
2022/09/29 00:09:05;;;;;;;2.20;2.00;;;7.90;99.90;;;;;;5071608;28;20236;-67
2022/09/29 00:11:31;;;;;;;2.92;2.28;;;7.90;99.90;;;;;;5071275;28;20583;-68
2022/09/29 00:13:58;;;;;;;3.10;2.60;;;7.90;99.90;;;;;;5071588;28;20244;-68
2022/09/29 00:16:25;;;;;;;2.85;2.33;;;7.90;99.90;;;;;;5071521;28;20208;-68
2022/09/29 00:18:56;;;;;;;4.05;2.95;;;7.90;99.90;;;;;;5071551;28;20212;-68
2022/09/29 00:21:23;;;;;;;3.00;2.58;;;7.90;99.90;;;;;;5070860;28;20231;-67
2022/09/29 00:23:50;;;;;;;2.53;2.35;;;8.00;99.90;;;;;;5071392;28;20734;-68
2022/09/29 00:26:19;;;;;;;2.28;2.10;;;8.00;99.90;;;;;;5071135;28;20209;-68
2022/09/29 00:28:48;;;;;;;2.55;2.35;;;8.00;99.90;;;;;;5071688;28;20204;-68
2022/09/29 00:31:15;;;;;;;2.70;2.50;;;8.00;99.90;;;;;;5070567;28;20585;-68
2022/09/29 00:33:42;;;;;;;2.80;2.17;;;8.00;99.90;;;;;;5071487;28;20234;-68
2022/09/29 00:36:14;;;;;;;3.22;2.47;;;8.00;99.90;;;;;;5071028;28;20199;-68
2022/09/29 00:38:43;;;;;;;4.20;2.75;;;8.00;99.90;;;;;;5071402;28;20207;-68
2022/09/29 00:41:16;;;;;;;3.17;2.88;;;8.10;99.90;;;;;;5070783;28;20212;-68
2022/09/29 00:43:57;;;;;;;3.40;2.40;;;8.10;99.90;;;;;;5071215;28;20256;-68
2022/09/29 00:46:32;;;;;;;2.65;2.05;;;8.10;99.90;;;;;;5070936;28;20841;-68
2022/09/29 00:49:04;;;;;;;2.55;2.35;;;8.10;99.90;;;;;;5071312;28;20580;-68
2022/09/29 00:51:33;;;;;;;2.80;2.47;;;8.10;99.90;;;;;;5070531;28;20671;-68
2022/09/29 00:54:01;;;;;;;2.10;1.90;;;8.20;99.90;;;;;;5070903;28;20586;-68
2022/09/29 00:56:29;;;;;;;3.22;2.50;;;8.10;99.90;;;;;;5070924;28;20666;-68
2022/09/29 00:58:59;;;;;;;4.30;2.80;;;8.10;99.90;;;;;;5071020;28;20205;-68
2022/09/29 01:01:30;;;;;;;2.58;2.35;;;8.10;99.90;;;;;;5070235;28;20209;-69
2022/09/29 01:04:02;;;;;;;3.67;2.60;;;8.00;99.90;;;;;;5070690;28;20227;-68
2022/09/29 01:06:34;;;;;;;2.40;2.20;;;8.00;99.90;;;;;;5070761;28;20207;-68
2022/09/29 01:09:03;;;;;;;2.40;2.20;;;8.00;99.90;;;;;;5070667;28;20199;-68
2022/09/29 01:11:31;;;;;;;4.32;2.53;;;8.10;99.90;;;;;;5070181;28;20204;-68
2022/09/29 01:14:02;;;;;;;6.90;2.85;;;8.10;99.90;;;;;;5070538;28;20638;-68
2022/09/29 01:16:29;;;;;;;2.35;2.10;;;8.10;99.90;;;;;;5070710;28;20207;-68
2022/09/29 01:18:57;;;;;;;2.80;2.50;;;8.10;99.90;;;;;;5070674;28;20239;-68
2022/09/29 01:21:31;;;;;;;3.03;2.75;;;8.10;99.90;;;;;;5069808;28;20215;-69
2022/09/29 01:24:42;;;;;;;2.42;2.22;;;8.10;99.90;;;;;;5070773;28;20223;-68
2022/09/29 01:27:47;;;;;;;2.63;2.42;;;8.10;99.90;;;;;;5070450;28;20207;-67
2022/09/29 01:30:21;;;;;;;2.60;2.30;;;8.10;99.90;;;;;;5061622;28;20610;-68
2022/09/29 01:33:23;;;;;;;2.38;2.00;;;8.10;99.90;;;;;;5070031;28;20205;-68
2022/09/29 01:36:02;;;;;;;2.83;2.22;;;8.10;99.90;;;;;;5070470;28;20576;-68
2022/09/29 01:38:44;;;;;;;2.90;2.40;;;8.10;99.90;;;;;;5070496;28;20211;-68
2022/09/29 01:41:18;;;;;;;2.90;2.60;;;8.10;99.90;;;;;;5070061;28;20292;-68
2022/09/29 01:43:49;;;;;;;2.60;2.40;;;8.10;99.90;;;;;;5070459;28;20220;-68
2022/09/29 01:46:22;;;;;;;2.50;2.15;;;8.20;99.90;;;;;;5070132;28;20590;-67
2022/09/29 01:48:54;;;;;;;2.38;2.00;;;8.20;99.90;;;;;;5070641;28;20203;-68
2022/09/29 01:51:25;;;;;;;2.40;2.20;;;8.20;99.90;;;;;;5069840;28;20696;-68
2022/09/29 01:53:55;;;;;;;2.30;2.10;;;8.10;99.90;;;;;;5070353;28;20227;-68
2022/09/29 01:56:28;;;;;;;4.38;2.38;;;8.10;99.90;;;;;;5070208;28;20207;-68
2022/09/29 01:59:00;;;;;;;3.28;2.10;;;8.10;99.90;;;;;;5070410;28;20225;-68
2022/09/29 02:01:34;;;;;;;2.80;2.40;;;8.10;99.90;;;;;;5072429;28;20686;-68
2022/09/29 02:04:06;;;;;;;3.33;2.70;;;8.10;99.90;;;;;;5074301;28;20220;-68
2022/09/29 02:06:36;;;;;;;2.90;2.60;;;8.10;99.90;;;;;;5074109;28;20208;-69
2022/09/29 02:09:08;;;;;;;2.70;2.30;;;8.10;99.90;;;;;;5073926;28;20576;-69
2022/09/29 02:11:38;;;;;;;2.40;2.00;;;8.20;99.90;;;;;;5073629;28;20211;-68
2022/09/29 02:14:11;;;;;;;2.63;2.00;;;8.20;99.90;;;;;;5073877;28;20223;-68
2022/09/29 02:16:43;;;;;;;2.30;2.10;;;8.20;99.90;;;;;;5074177;28;20666;-68
2022/09/29 02:19:16;;;;;;;2.33;2.13;;;8.20;99.90;;;;;;5073533;28;20216;-68
2022/09/29 02:21:44;;;;;;;2.72;2.20;;;8.20;99.90;;;;;;5073467;28;20212;-68
2022/09/29 02:24:11;;;;;;;3.20;2.13;;;8.20;99.90;;;;;;5073578;28;20227;-68
2022/09/29 02:26:39;;;;;;;3.85;2.35;;;8.20;99.90;;;;;;5073763;28;20693;-68
2022/09/29 02:29:07;;;;;;;3.03;2.60;;;8.20;99.90;;;;;;5073688;28;20253;-67
2022/09/29 02:31:35;;;;;;;3.33;2.30;;;8.20;99.90;;;;;;5073268;28;20205;-68
2022/09/29 02:34:04;;;;;;;2.58;2.35;;;8.20;99.90;;;;;;5073916;28;20594;-68
2022/09/29 02:36:43;;;;;;;2.88;1.90;;;8.20;99.90;;;;;;5073637;28;20203;-68
2022/09/29 02:39:17;;;;;;;2.20;2.00;;;8.20;99.90;;;;;;5073485;28;20219;-68
2022/09/29 02:42:00;;;;;;;2.45;2.22;;;8.20;99.90;;;;;;5073245;28;20211;-68
2022/09/29 02:44:46;;;;;;;2.25;2.05;;;8.20;99.90;;;;;;5073427;28;20236;-68
2022/09/29 02:47:28;;;;;;;3.10;2.30;;;8.20;99.90;;;;;;5073387;28;20208;-68
2022/09/29 02:50:14;;;;;;;2.08;1.85;;;8.20;99.90;;;;;;5073503;28;20634;-68
2022/09/29 02:52:51;;;;;;;3.33;2.45;;;8.20;99.90;;;;;;5072843;28;20781;-68
2022/09/29 02:55:21;;;;;;;3.63;2.38;;;8.20;99.90;;;;;;5073209;28;20675;-68
2022/09/29 02:57:51;;;;;;;2.20;2.00;;;8.20;99.90;;;;;;5073269;28;20207;-68
2022/09/29 03:00:20;;;;;;;2.75;2.10;;;8.20;99.90;;;;;;5073068;28;20663;-67
2022/09/29 03:02:47;;;;;;;2.78;2.30;;;8.20;99.90;;;;;;5072472;28;20208;-68
2022/09/29 03:05:16;;;;;;;2.85;2.20;;;8.20;99.90;;;;;;5073027;28;20226;-68
2022/09/29 03:07:44;;;;;;;2.50;2.30;;;8.20;99.90;;;;;;5073228;28;20216;-67
2022/09/29 03:10:12;;;;;;;4.03;2.10;;;8.20;99.90;;;;;;5072750;28;20204;-68
2022/09/29 03:12:39;;;;;;;3.83;2.70;;;8.10;99.90;;;;;;5071412;28;20555;-68
2022/09/29 03:15:07;;;;;;;1.65;1.55;;;8.10;99.90;;;;;;5072762;28;20228;-68
2022/09/29 03:17:34;;;;;;;2.22;2.03;;;8.10;99.90;;;;;;5073077;28;20205;-68
2022/09/29 03:20:02;;;;;;;2.03;1.80;;;8.10;99.90;;;;;;5072620;28;20221;-68
2022/09/29 03:22:28;;;;;;;1.90;1.80;;;8.10;99.90;;;;;;5072257;28;20204;-68
2022/09/29 03:24:56;;;;;;;2.40;1.70;;;8.10;99.90;;;;;;5072682;28;20230;-68
2022/09/29 03:27:23;;;;;;;4.15;2.05;;;8.10;99.90;;;;;;5072637;28;20209;-69
2022/09/29 03:29:50;;;;;;;2.78;2.42;;;8.10;99.90;;;;;;5072410;28;20690;-68
2022/09/29 03:32:17;;;;;;;2.50;2.30;;;8.00;99.90;;;;;;5071446;28;20230;-68
2022/09/29 03:34:44;;;;;;;2.22;2.10;;;8.00;99.90;;;;;;5059519;28;20284;-68
2022/09/29 03:37:11;;;;;;;2.40;2.10;;;8.00;99.90;;;;;;5051454;28;20682;-68
2022/09/29 03:39:37;;;;;;;4.47;2.88;;;8.00;99.90;;;;;;5052265;28;20204;-68
2022/09/29 03:42:06;;;;;;;2.90;2.20;;;8.00;99.90;;;;;;5052009;28;20203;-68
2022/09/29 03:44:32;;;;;;;3.10;2.35;;;7.90;99.90;;;;;;5052340;28;20233;-69
2022/09/29 03:46:59;;;;;;;1.90;1.80;;;7.90;99.90;;;;;;5052491;28;20212;-67
2022/09/29 03:49:26;;;;;;;1.90;1.80;;;7.90;99.90;;;;;;5051978;28;20265;-68
2022/09/29 03:51:53;;;;;;;4.22;2.30;;;7.80;99.90;;;;;;5051775;28;20203;-68
2022/09/29 03:54:19;;;;;;;2.25;1.90;;;7.70;99.90;;;;;;5052109;28;20230;-69
2022/09/29 03:56:46;;;;;;;2.72;2.28;;;7.60;99.90;;;;;;5052357;28;20204;-69
2022/09/29 03:59:14;;;;;;;2.13;1.88;;;7.60;99.90;;;;;;5051964;28;20208;-68
2022/09/29 04:01:41;;;;;;;2.95;1.75;;;7.60;99.90;;;;;;5051625;28;20576;-68
2022/09/29 04:04:09;;;;;;;1.95;1.55;;;7.50;99.90;;;;;;5051719;28;20218;-68
2022/09/29 04:06:36;;;;;;;6.47;2.60;;;7.50;99.90;;;;;;5052069;28;20771;-69
2022/09/29 04:09:03;;;;;;;4.00;2.10;;;7.40;99.90;;;;;;5051676;28;20671;-68
2022/09/29 04:11:31;;;;;;;2.30;2.00;;;7.40;99.90;;;;;;5051240;28;20212;-69
2022/09/29 04:13:57;;;;;;;2.47;2.28;;;7.40;99.90;;;;;;5051749;28;20231;-69
2022/09/29 04:16:25;;;;;;;2.53;2.00;;;7.30;99.90;;;;;;5051739;28;20262;-68
2022/09/29 04:18:52;;;;;;;2.22;1.70;;;7.30;99.90;;;;;;5051183;28;20210;-69
2022/09/29 04:21:19;;;;;;;2.35;1.90;;;7.20;99.90;;;;;;5050888;28;20577;-69
2022/09/29 04:23:46;;;;;;;2.50;2.30;;;7.20;99.90;;;;;;5050341;28;20462;-68
2022/09/29 04:26:13;;;;;;;2.90;2.30;;;7.10;99.90;;;;;;5051398;28;20230;-69
2022/09/29 04:28:40;;;;;;;2.63;2.03;;;7.10;99.90;;;;;;5058912;28;20204;-68
2022/09/29 04:31:07;;;;;;;2.47;2.28;;;7.10;99.90;;;;;;5069732;28;20204;-67
2022/09/29 04:33:36;;;;;;;3.20;2.42;;;7.10;99.90;;;;;;5067949;28;20221;-68
2022/09/29 04:36:03;;;;;;;2.95;2.38;;;7.10;99.90;;;;;;5068596;28;20192;-68
2022/09/29 04:38:30;;;;;;;2.50;2.30;;;7.00;99.90;;;;;;5068541;28;20207;-68
2022/09/29 04:40:56;;;;;;;1.67;1.55;;;7.00;99.90;;;;;;5068480;28;20205;-68
2022/09/29 04:43:23;;;;;;;1.98;1.65;;;7.00;99.90;;;;;;5067655;28;20223;-68
2022/09/29 04:45:50;;;;;;;2.13;1.80;;;6.90;99.90;;;;;;5068764;28;20228;-68
2022/09/29 04:48:16;;;;;;;2.75;2.20;;;6.90;99.90;;;;;;5070992;28;20230;-69
2022/09/29 04:50:44;;;;;;;1.75;1.65;;;6.90;99.90;;;;;;5071182;28;20197;-68
2022/09/29 04:53:12;;;;;;;2.28;1.65;;;6.80;99.90;;;;;;5070428;28;20620;-69
2022/09/29 04:55:38;;;;;;;3.13;2.33;;;6.80;99.90;;;;;;5071062;28;20202;-68
2022/09/29 04:58:06;;;;;;;2.25;1.90;;;6.80;99.90;;;;;;5071071;28;20208;-68
2022/09/29 05:00:34;;;;;;;3.17;2.30;;;6.80;99.90;;;;;;5071020;28;20200;-68
2022/09/29 05:03:00;;;;;;;2.28;2.08;;;6.80;99.90;;;;;;5070311;28;20613;-68
2022/09/29 05:05:27;;;;;;;6.13;2.80;;;6.80;99.90;;;;;;5070665;28;20220;-68
2022/09/29 05:07:55;;;;;;;2.28;1.73;;;6.70;99.90;;;;;;5070953;28;20205;-68
2022/09/29 05:10:22;;;;;;;2.58;1.95;;;6.70;99.90;;;;;;5070857;28;20213;-68
2022/09/29 05:12:50;;;;;;;2.05;1.85;;;6.80;99.90;;;;;;5070214;28;20224;-68
2022/09/29 05:15:17;;;;;;;2.35;1.90;;;6.70;99.90;;;;;;5070718;28;20235;-68
2022/09/29 05:17:44;;;;;;;2.47;2.28;;;6.70;99.90;;;;;;5070953;28;20227;-68
2022/09/29 05:20:25;;;;;;;2.50;2.30;;;6.70;99.90;;;;;;5090861;22;20239;-93
2022/09/29 05:26:20;;;;;;;2.55;2.28;;;6.70;99.90;;;;;;5053573;28;20252;-93
2022/09/29 05:29:26;;;;;;;2.13;1.90;;;6.70;99.90;;;;;;5039574;28;20222;-93
2022/09/29 05:35:30;;;;;;;2.03;1.90;;;6.70;99.90;;;;;;5021575;28;20221;-93
2022/09/29 05:38:39;;;;;;;1.75;1.65;;;6.70;99.90;;;;;;5056545;28;20201;-93
2022/09/29 05:44:26;;;;;;;2.50;2.30;;;6.80;99.90;;;;;;5055233;28;20722;-92
2022/09/29 05:47:33;;;;;;;2.78;2.45;;;6.80;99.90;;;;;;5062382;28;20236;-93
2022/09/29 05:53:06;;;;;;;3.90;3.13;;;6.80;99.90;;;;;;5027039;28;20204;-92
2022/09/29 05:55:34;;;;;;;2.65;2.45;;;6.80;99.90;;;;;;5077182;28;20194;-92
2022/09/29 05:58:01;;;;;;;3.92;2.95;;;6.80;99.90;;;;;;5086434;28;20213;-93
2022/09/29 06:00:30;;;;;;;3.90;2.83;;;6.80;99.90;;;;;;5086603;28;20312;-92
2022/09/29 06:03:00;;;;;;;3.65;3.22;;;6.80;99.90;;;;;;5085842;28;20209;-93
2022/09/29 06:05:28;;;;;;;3.28;2.47;;;6.90;99.90;;;;;;5081874;28;20227;-95
2022/09/29 06:08:02;;;;;;;5.18;2.90;;;6.90;99.90;;;;;;5080154;28;20292;-95
2022/09/29 06:10:29;;;;;;;3.75;2.90;;;6.90;99.90;;;;;;5082402;28;20307;-94
2022/09/29 06:13:04;;;;;;;2.67;2.40;;;6.90;99.90;;;;;;5080398;28;20193;-95
2022/09/29 06:15:33;;;;;;;3.90;2.88;;;6.90;99.90;;;;;;5089411;28;20209;-94
2022/09/29 06:18:03;;;;;;;3.15;2.80;;;7.00;99.90;;;;;;5092765;28;20211;-93
2022/09/29 06:20:37;;;;;;;3.15;2.83;;;7.00;99.90;;;;;;5091947;28;20239;-95
2022/09/29 06:23:04;;;;;;;4.93;2.60;;;7.00;99.90;;;;;;5087815;28;20197;-95
2022/09/29 06:25:34;;;;;;;3.60;2.38;;;7.00;99.90;;;;;;5088712;28;20205;-94
2022/09/29 06:28:01;;;;;;;3.10;2.58;;;7.00;99.90;;;;;;5092349;28;20213;-95
2022/09/29 06:30:31;;;;;;;2.85;2.60;;;7.10;99.90;;;;;;5093734;28;20248;-95
2022/09/29 06:32:58;;;;;;;2.95;2.30;;;7.20;99.90;;;;;;5093688;28;20197;-92
2022/09/29 06:38:27;;;;;;;2.80;2.40;;;7.30;99.90;;;;;;5037096;28;20220;-92
2022/09/29 06:40:54;;;;;;;3.03;2.60;;;7.30;99.90;;;;;;5048468;28;20202;-93
2022/09/29 06:43:21;;;;;;;2.58;2.38;;;7.40;99.90;;;;;;5057741;28;20201;-93
2022/09/29 06:45:48;;;;;;;2.50;2.22;;;7.40;99.90;;;;;;5089186;28;20255;-94
2022/09/29 06:48:14;;;;;;;3.95;2.42;;;7.40;99.90;;;;;;5088228;28;20248;-93
2022/09/29 06:50:43;;;;;;;2.55;2.33;;;7.40;99.90;;;;;;5085382;28;20244;-94
2022/09/29 06:53:26;;;;;;;5.53;3.00;;;7.40;99.90;;;;;;5081102;28;20235;-92
2022/09/29 06:58:54;;;;;;;2.85;2.25;;;7.50;99.90;;;;;;5060688;28;20214;-93
2022/09/29 07:01:50;;;;;;;4.32;3.17;;;7.60;99.90;;;;;;5064093;28;20243;-91
2022/09/29 07:04:22;;;;;;;4.13;3.35;;;7.60;99.90;;;;;;5056113;28;20653;-93
2022/09/29 07:06:51;;;;;;;3.85;2.90;;;7.70;99.90;;;;;;5050839;28;20223;-93
2022/09/29 07:09:22;;;;;;;3.63;2.45;;;7.70;99.90;;;;;;5058801;28;20232;-93
2022/09/29 07:11:51;;;;;;;4.00;2.90;;;7.80;99.90;;;;;;5061376;28;20278;-94
2022/09/29 07:14:21;;;;;;;3.60;2.88;;;7.90;99.90;;;;;;5067591;28;20217;-93
2022/09/29 07:16:48;;;;;;;5.68;2.92;;;8.00;99.90;;;;;;5075569;28;20299;-94
2022/09/29 07:19:19;;;;;;;2.95;2.70;;;8.10;99.90;;;;;;5071426;28;20226;-93
2022/09/29 07:21:58;;;;;;;3.80;2.78;;;8.10;99.90;;;;;;5066781;28;20219;-93
2022/09/29 07:24:25;;;;;;;2.80;2.60;;;8.20;99.90;;;;;;5069832;28;20206;-95
2022/09/29 07:26:52;;;;;;;6.72;3.25;;;8.20;99.90;;;;;;5067504;28;20221;-96
2022/09/29 07:29:19;;;;;;;2.75;2.55;;;8.30;99.90;;;;;;5077627;28;20226;-95
2022/09/29 07:31:51;;;;;;;4.18;2.80;;;8.30;99.90;;;;;;5066631;28;20204;-96
2022/09/29 07:34:18;;;;;;;3.80;2.60;;;8.40;99.90;;;;;;5068147;28;20259;-95
2022/09/29 07:36:45;;;;;;;4.25;3.10;;;8.40;99.90;;;;;;5071514;28;20207;-95
2022/09/29 07:39:13;;;;;;;3.35;3.05;;;8.50;99.90;;;;;;5070004;28;20241;-95
2022/09/29 07:44:21;;;;;;;3.05;2.50;;;8.60;99.90;;;;;;5054117;28;20205;-95
2022/09/29 07:46:49;;;;;;;5.80;2.90;;;8.60;99.90;;;;;;5069907;28;20218;-95
2022/09/29 07:49:16;;;;;;;3.25;2.90;;;8.70;99.90;;;;;;5069193;28;20237;-95
2022/09/29 07:51:43;;;;;;;5.68;2.75;;;8.70;99.90;;;;;;5068975;28;20208;-95
2022/09/29 07:54:10;;;;;;;3.97;2.80;;;8.80;99.90;;;;;;5070614;28;20209;-95
2022/09/29 07:56:43;;;;;;;3.50;3.00;;;8.90;99.90;;;;;;5071510;28;20264;-95
2022/09/29 07:59:11;;;;;;;3.13;2.90;;;9.00;99.90;;;;;;5073113;28;20224;-96
2022/09/29 08:01:38;;;;;;;2.92;2.70;;;9.10;99.90;;;;;;5072773;28;20265;-93
2022/09/29 08:04:16;;;;;;;3.78;3.13;;;9.10;99.90;;;;;;5075302;28;20193;-96
2022/09/29 08:06:45;;;;;;;3.95;3.40;;;9.20;99.90;;;;;;5076898;28;20212;-93
2022/09/29 08:09:16;;;;;;;2.97;2.55;;;9.30;99.90;;;;;;5056953;28;20225;-93
2022/09/29 08:17:46;;;;;;;3.20;2.90;;;9.40;99.90;;;;;;5064242;22;20233;-66
2022/09/29 08:20:13;;;;;;;3.22;2.90;;;9.50;99.90;;;;;;5070715;28;20203;-66
2022/09/29 08:22:40;;;;;;;2.53;2.20;;;9.50;99.90;;;;;;5070487;28;20627;-66
2022/09/29 08:25:07;;;;;;;2.90;2.58;;;9.50;99.90;;;;;;5070241;28;20738;-66
2022/09/29 08:27:35;;;;;;;2.65;2.45;;;9.60;99.90;;;;;;5070584;28;20225;-67
2022/09/29 08:30:02;;;;;;;2.30;2.00;;;9.60;99.90;;;;;;5071027;28;20263;-67
2022/09/29 08:32:29;;;;;;;4.53;2.35;;;9.70;99.90;;;;;;5070349;28;20197;-67
2022/09/29 08:34:55;;;;;;;2.30;2.10;;;9.70;99.90;;;;;;5067743;28;20221;-67
2022/09/29 08:37:22;;;;;;;2.50;2.30;;;9.80;99.90;;;;;;5067913;28;20189;-66
2022/09/29 08:39:49;;;;;;;3.85;2.20;;;9.90;99.90;;;;;;5070279;28;20200;-67
2022/09/29 08:42:22;;;;;;;2.17;1.52;;;9.90;99.90;;;;;;5063753;28;20205;-67
2022/09/29 08:44:57;;;;;;;2.80;2.00;;;9.90;99.90;;;;;;5050909;28;20231;-67
2022/09/29 08:47:28;;;;;;;1.88;1.58;;;9.90;99.90;;;;;;5050750;28;20225;-66
2022/09/29 08:49:59;;;;;;;3.15;2.38;;;9.90;99.90;;;;;;5049415;28;20197;-67
2022/09/29 08:52:30;;;;;;;2.60;2.40;;;10.00;99.90;;;;;;5050374;28;20271;-69
2022/09/29 08:55:01;;;;;;;4.80;2.40;;;10.00;99.90;;;;;;5050528;28;20232;-66
2022/09/29 08:57:29;;;;;;;2.60;2.20;;;10.00;99.90;;;;;;5050757;28;20207;-67
2022/09/29 08:59:59;;;;;;;2.55;2.35;;;10.10;99.90;;;;;;5050560;28;20201;-67
2022/09/29 09:02:58;;;;;;;2.38;2.05;;;10.10;99.90;;;;;;5050241;28;20200;-67
2022/09/29 09:05:40;;;;;;;3.38;2.10;;;10.20;99.90;;;;;;5044042;28;20233;-67
2022/09/29 09:08:17;;;;;;;3.95;2.17;;;10.30;99.90;;;;;;5050920;28;20221;-67
2022/09/29 09:10:46;;;;;;;2.40;1.30;;;10.40;99.90;;;;;;5049485;28;20665;-67
2022/09/29 09:13:25;;;;;;;1.60;1.50;;;10.40;99.90;;;;;;5049984;28;20225;-67
2022/09/29 09:16:12;;;;;;;1.67;1.42;;;10.40;99.90;;;;;;5050349;28;20209;-67
2022/09/29 09:19:02;;;;;;;1.40;1.30;;;10.50;99.90;;;;;;5050389;28;20209;-66
2022/09/29 09:21:40;;;;;;;2.35;2.15;;;10.50;99.90;;;;;;5050135;28;20205;-68
2022/09/29 09:24:15;;;;;;;1.92;1.65;;;10.50;99.90;;;;;;5050362;28;20308;-67
2022/09/29 09:26:44;;;;;;;1.95;1.73;;;10.50;99.90;;;;;;5050093;28;20224;-68
2022/09/29 09:29:16;;;;;;;4.15;1.60;;;10.50;99.90;;;;;;5050434;28;20212;-68
2022/09/29 09:31:51;;;;;;;2.17;1.85;;;10.50;99.90;;;;;;5049942;28;20206;-68
2022/09/29 09:34:22;;;;;;;2.80;2.10;;;10.60;99.90;;;;;;5050558;28;20225;-67
2022/09/29 09:36:54;;;;;;;1.95;1.70;;;10.40;99.90;;;;;;5050061;28;20642;-67
2022/09/29 09:39:25;;;;;;;1.90;1.70;;;10.40;99.90;;;;;;5042987;28;20577;-68
2022/09/29 09:41:55;;;;;;;4.00;2.30;;;10.40;99.90;;;;;;5049621;28;20204;-67
2022/09/29 09:44:27;;;;;;;3.33;1.67;;;10.50;99.90;;;;;;5050271;28;20249;-67
2022/09/29 09:46:58;;;;;;;1.90;1.70;;;10.50;99.90;;;;;;5049937;28;20308;-68
2022/09/29 09:49:29;;;;;;;1.83;1.30;;;10.60;99.90;;;;;;5050292;28;20679;-67
2022/09/29 09:52:03;;;;;;;1.65;1.50;;;10.60;99.90;;;;;;5049623;28;20198;-68
2022/09/29 09:54:34;;;;;;;1.75;1.65;;;10.60;99.90;;;;;;5050171;28;20229;-67
2022/09/29 09:57:18;;;;;;;1.10;1.00;;;10.60;99.90;;;;;;5049967;28;20240;-68
2022/09/29 09:59:58;;;;;;;3.35;1.98;;;10.70;99.90;;;;;;5049976;28;20212;-68
2022/09/29 10:02:27;;;;;;;1.40;1.30;;;10.70;99.90;;;;;;5049430;28;20201;-67
2022/09/29 10:04:55;;;;;;;1.20;1.10;;;10.90;99.90;;;;;;5049876;28;20229;-67
2022/09/29 10:07:24;;;;;;;1.50;1.30;;;10.90;99.90;;;;;;5050169;28;20226;-68
2022/09/29 10:09:52;;;;;;;3.28;1.40;;;11.00;99.90;;;;;;5049785;28;20205;-67
2022/09/29 10:12:20;;;;;;;1.35;1.15;;;11.10;99.90;;;;;;5049391;28;20209;-68
2022/09/29 10:14:52;;;;;;;2.00;1.30;;;11.20;99.90;;;;;;5049693;28;20221;-67
2022/09/29 10:17:21;;;;;;;2.30;1.70;;;11.20;99.90;;;;;;5049942;28;20209;-67
2022/09/29 10:20:00;;;;;;;1.75;1.45;;;11.20;99.90;;;;;;5049608;28;20262;-67
2022/09/29 10:22:29;;;;;;;2.33;1.60;;;11.20;99.90;;;;;;5052112;28;20585;-68
2022/09/29 10:25:07;;;;;;;1.20;1.10;;;11.30;99.90;;;;;;5053273;28;20218;-67
2022/09/29 10:27:34;;;;;;;1.65;1.55;;;11.50;99.90;;;;;;5053586;28;20260;-67
2022/09/29 10:30:02;;;;;;;1.50;1.35;;;11.60;99.90;;;;;;5053331;28;20229;-67
2022/09/29 10:32:36;;;;;;;1.45;1.35;;;11.80;99.90;;;;;;5053116;28;20209;-68
2022/09/29 10:35:10;;;;;;;1.58;1.48;;;11.90;99.90;;;;;;5053007;28;20302;-68
2022/09/29 10:37:39;;;;;;;1.40;1.30;;;12.00;99.90;;;;;;5053620;28;20637;-68
2022/09/29 10:40:17;;;;;;;3.17;1.27;;;12.00;99.90;;;;;;5053316;28;20653;-68
2022/09/29 10:42:47;;;;;;;1.95;1.40;;;12.00;99.90;;;;;;5052630;28;20224;-68
2022/09/29 10:45:16;;;;;;;1.40;1.13;;;12.00;99.90;;;;;;5053260;28;20233;-68
2022/09/29 10:47:46;;;;;;;1.40;1.30;;;12.10;99.90;;;;;;5053192;28;20241;-68
2022/09/29 10:50:18;;;;;;;1.70;1.13;;;12.00;99.90;;;;;;5053291;28;20582;-67
2022/09/29 10:52:48;;;;;;;4.28;1.33;;;12.10;99.90;;;;;;5052577;28;20205;-68
2022/09/29 10:55:21;;;;;;;1.70;1.15;;;12.10;99.90;;;;;;5053157;28;20222;-67
2022/09/29 10:57:48;;;;;;;1.52;1.20;;;12.20;99.90;;;;;;5052830;28;20201;-67
2022/09/29 11:00:31;;;;;;;2.20;1.27;;;12.30;99.90;;;;;;5052873;28;20209;-67
2022/09/29 11:03:06;;;;;;;1.60;1.20;;;12.50;99.90;;;;;;5051999;28;20644;-68
2022/09/29 11:05:35;;;;;;;1.67;1.20;;;12.60;99.90;;;;;;5053048;28;20208;-67
2022/09/29 11:08:02;;;;;;;1.40;1.30;;;12.60;99.90;;;;;;5052584;28;21007;-67
2022/09/29 11:10:31;;;;;;;1.47;1.30;;;12.60;99.90;;;;;;5053091;28;20240;-68
2022/09/29 11:12:59;;;;;;;1.97;1.20;;;12.60;99.90;;;;;;5051895;28;20494;-68
2022/09/29 11:15:29;;;;;;;1.97;1.70;;;12.70;99.90;;;;;;5052781;28;20471;-67
2022/09/29 11:17:56;;;;;;;1.50;1.37;;;12.60;99.90;;;;;;5052439;28;20849;-67
2022/09/29 11:20:29;;;;;;;1.38;1.20;;;12.70;99.90;;;;;;5094843;22;20487;-94
2022/09/29 11:23:17;;;;;;;2.97;1.40;;;12.80;99.90;;;;;;5079107;28;20265;-96
2022/09/29 11:25:55;;;;;;;1.50;1.40;;;12.80;99.90;;;;;;5098573;28;20506;-95
2022/09/29 11:29:04;;;;;;;1.77;1.40;;;12.80;99.90;;;;;;5099866;28;20550;-95
2022/09/29 11:31:47;;;;;;;1.30;1.20;;;12.90;99.90;;;;;;5079022;28;20527;-96
2022/09/29 11:34:43;;;;;;;1.27;1.17;;;13.10;99.90;;;;;;5078315;28;20440;-94
2022/09/29 11:37:26;;;;;;;1.53;1.00;;;13.20;99.90;;;;;;5079686;28;20574;-95
2022/09/29 11:40:02;;;;;;;1.10;0.90;;;13.40;99.90;;;;;;5079299;28;20464;-95
2022/09/29 11:43:05;;;;;;;1.93;1.50;;;13.60;99.90;;;;;;5078898;28;20440;-95
2022/09/29 11:45:43;;;;;;;2.70;1.40;;;13.50;99.90;;;;;;5078948;28;20440;-95
2022/09/29 11:48:45;;;;;;;1.37;1.27;;;13.40;99.90;;;;;;5079149;28;20483;-93
2022/09/29 11:54:43;;;;;;;1.80;1.10;;;13.60;99.90;;;;;;5059166;28;20455;-67
2022/09/29 11:57:16;;;;;;;1.37;1.13;;;13.70;99.90;;;;;;5071335;28;20454;-68
2022/09/29 12:00:04;;;;;;;3.33;1.13;;;13.90;99.90;;;;;;5072160;28;20810;-68
2022/09/29 12:02:53;;;;;;;1.60;1.33;;;13.90;99.90;;;;;;5070942;28;20463;-68
2022/09/29 12:05:26;;;;;;;1.60;1.30;;;13.90;99.90;;;;;;5071595;28;20926;-69
2022/09/29 12:08:05;;;;;;;1.50;1.00;;;13.80;99.90;;;;;;5071568;28;20510;-68
2022/09/29 12:10:48;;;;;;;1.83;1.10;;;13.80;99.90;;;;;;5071401;28;20459;-68
2022/09/29 12:13:25;;;;;;;1.40;1.20;;;13.80;99.90;;;;;;5070829;28;20479;-69
2022/09/29 12:15:57;;;;;;;1.50;1.00;;;13.80;99.90;;;;;;5071627;28;20466;-68
2022/09/29 12:18:31;;;;;;;1.57;1.27;;;13.70;99.90;;;;;;5071118;28;20451;-68
2022/09/29 12:20:59;;;;;;;1.47;1.07;;;13.70;99.90;;;;;;5071411;28;20499;-68
2022/09/29 12:23:29;;;;;;;1.20;1.10;;;13.80;99.90;;;;;;5070429;28;20483;-68
2022/09/29 12:26:00;;;;;;;1.40;1.10;;;13.80;99.90;;;;;;5071460;28;20459;-68
2022/09/29 12:28:34;;;;;;;1.50;1.40;;;13.90;99.90;;;;;;5070864;28;20487;-68
2022/09/29 12:31:08;;;;;;;1.27;1.10;;;13.90;99.90;;;;;;5071352;28;20462;-68
2022/09/29 12:33:39;;;;;;;1.90;1.40;;;13.90;99.90;;;;;;5070443;28;20990;-69
2022/09/29 12:39:15;;;;;;;1.97;1.30;;;13.80;99.90;;;;;;5071051;28;20584;-69
2022/09/29 12:41:48;;;;;;;1.70;1.10;;;13.90;99.90;;;;;;5069752;28;20855;-68
2022/09/29 12:44:25;;;;;;;2.03;1.33;;;13.90;99.90;;;;;;5069541;28;20855;-68
2022/09/29 12:46:59;;;;;;;1.00;0.90;;;13.90;99.90;;;;;;5071095;28;20463;-69
2022/09/29 12:49:34;;;;;;;2.67;1.37;;;13.90;99.90;;;;;;5070963;28;20526;-68
2022/09/29 12:52:02;;;;;;;1.57;1.10;;;13.80;99.90;;;;;;5070490;28;20879;-68
2022/09/29 12:54:35;;;;;;;1.83;1.70;;;13.70;99.90;;;;;;5070945;28;20490;-68
2022/09/29 12:57:04;;;;;;;1.57;1.47;;;13.70;99.90;;;;;;5071484;28;20842;-68
2022/09/29 12:59:38;;;;;;;1.40;1.10;;;13.70;99.90;;;;;;5070890;28;20468;-68
2022/09/29 13:02:28;;;;;;;1.57;1.10;;;13.70;99.90;;;;;;5070562;28;20478;-68
2022/09/29 13:05:11;;;;;;;1.40;1.30;;;13.60;99.90;;;;;;5071003;28;20904;-68
2022/09/29 13:08:06;;;;;;;4.23;1.50;;;13.50;99.90;;;;;;5070901;28;21002;-69
2022/09/29 13:11:08;;;;;;;1.47;1.37;;;13.50;99.90;;;;;;5070758;28;20455;-69
2022/09/29 13:14:11;;;;;;;1.30;1.20;;;13.50;99.90;;;;;;5070382;28;21011;-68
2022/09/29 13:16:47;;;;;;;3.53;1.10;;;13.50;99.90;;;;;;5065915;28;20470;-68
2022/09/29 13:19:44;;;;;;;1.40;1.10;;;13.50;99.90;;;;;;5070670;28;20443;-68
2022/09/29 13:22:32;;;;;;;1.40;1.30;;;13.50;99.90;;;;;;5070284;28;20456;-68
2022/09/29 13:25:11;;;;;;;1.30;1.10;;;13.50;99.90;;;;;;5070849;28;20475;-68
2022/09/29 13:27:41;;;;;;;2.60;1.20;;;13.50;99.90;;;;;;5070722;28;21068;-68
2022/09/29 13:30:15;;;;;;;1.40;1.30;;;13.40;99.90;;;;;;5070626;28;20459;-68
2022/09/29 13:32:45;;;;;;;2.03;1.23;;;13.40;99.90;;;;;;5070000;28;20968;-68
2022/09/29 13:35:17;;;;;;;1.13;1.00;;;13.40;99.90;;;;;;5070562;28;20550;-68
2022/09/29 13:37:48;;;;;;;1.83;1.27;;;13.30;99.90;;;;;;5070923;28;20498;-69
2022/09/29 13:40:24;;;;;;;1.20;1.00;;;13.30;99.90;;;;;;5070433;28;20466;-69
2022/09/29 13:42:54;;;;;;;1.40;1.30;;;13.30;99.90;;;;;;5069922;28;20463;-69
2022/09/29 13:45:45;;;;;;;1.57;1.40;;;13.30;99.90;;;;;;5070361;28;20912;-68
2022/09/29 13:48:36;;;;;;;2.80;1.37;;;13.40;99.90;;;;;;5070602;28;20514;-67
2022/09/29 13:51:39;;;;;;;1.37;1.10;;;13.50;99.90;;;;;;5070559;28;20500;-69
2022/09/29 13:54:22;;;;;;;1.50;1.20;;;13.50;99.90;;;;;;5070328;28;20898;-67
2022/09/29 13:56:51;;;;;;;1.20;1.00;;;13.60;99.90;;;;;;5072404;28;20467;-67